sensor_id;sensor_type;location;lat;lon;timestamp;temperature;humidity
68924;DHT22;55961;52.156;20.942;2023-02-21T00:00:58;7.30;89.30
68924;DHT22;55961;52.156;20.942;2023-02-21T00:03:43;7.30;88.40
68924;DHT22;55961;52.156;20.942;2023-02-21T00:06:27;7.30;87.40
68924;DHT22;55961;52.156;20.942;2023-02-21T00:09:12;7.30;86.70
68924;DHT22;55961;52.156;20.942;2023-02-21T00:11:56;7.30;85.90
68924;DHT22;55961;52.156;20.942;2023-02-21T00:14:40;7.30;85.50
68924;DHT22;55961;52.156;20.942;2023-02-21T00:17:25;7.40;85.50
68924;DHT22;55961;52.156;20.942;2023-02-21T00:20:09;7.40;84.20
68924;DHT22;55961;52.156;20.942;2023-02-21T00:22:54;7.40;83.40
68924;DHT22;55961;52.156;20.942;2023-02-21T00:25:39;7.40;83.10
68924;DHT22;55961;52.156;20.942;2023-02-21T00:28:23;7.40;82.70
68924;DHT22;55961;52.156;20.942;2023-02-21T00:31:08;7.40;81.50
68924;DHT22;55961;52.156;20.942;2023-02-21T00:33:52;7.50;81.30
68924;DHT22;55961;52.156;20.942;2023-02-21T00:36:36;7.50;80.80
68924;DHT22;55961;52.156;20.942;2023-02-21T00:39:21;7.50;81.00
68924;DHT22;55961;52.156;20.942;2023-02-21T00:42:05;7.50;80.80
68924;DHT22;55961;52.156;20.942;2023-02-21T00:44:50;7.50;81.10
68924;DHT22;55961;52.156;20.942;2023-02-21T00:47:34;7.60;81.40
68924;DHT22;55961;52.156;20.942;2023-02-21T00:50:19;7.50;81.60
68924;DHT22;55961;52.156;20.942;2023-02-21T00:53:03;7.60;81.20
68924;DHT22;55961;52.156;20.942;2023-02-21T00:55:47;7.60;80.20
68924;DHT22;55961;52.156;20.942;2023-02-21T00:58:32;7.60;80.00
68924;DHT22;55961;52.156;20.942;2023-02-21T01:01:16;7.60;79.90
68924;DHT22;55961;52.156;20.942;2023-02-21T01:04:01;7.60;79.50
68924;DHT22;55961;52.156;20.942;2023-02-21T01:06:47;7.60;79.20
68924;DHT22;55961;52.156;20.942;2023-02-21T01:09:33;7.60;78.80
68924;DHT22;55961;52.156;20.942;2023-02-21T01:12:17;7.50;79.10
68924;DHT22;55961;52.156;20.942;2023-02-21T01:15:02;7.50;79.00
68924;DHT22;55961;52.156;20.942;2023-02-21T01:17:46;7.50;79.10
68924;DHT22;55961;52.156;20.942;2023-02-21T01:20:31;7.50;79.40
68924;DHT22;55961;52.156;20.942;2023-02-21T01:23:16;7.50;79.70
68924;DHT22;55961;52.156;20.942;2023-02-21T01:26:00;7.40;79.40
68924;DHT22;55961;52.156;20.942;2023-02-21T01:28:46;7.40;78.50
68924;DHT22;55961;52.156;20.942;2023-02-21T01:31:31;7.40;78.30
68924;DHT22;55961;52.156;20.942;2023-02-21T01:34:15;7.40;78.20
68924;DHT22;55961;52.156;20.942;2023-02-21T01:37:00;7.40;78.00
68924;DHT22;55961;52.156;20.942;2023-02-21T01:39:44;7.40;78.10
68924;DHT22;55961;52.156;20.942;2023-02-21T01:42:28;7.40;78.00
68924;DHT22;55961;52.156;20.942;2023-02-21T01:45:38;7.40;78.00
68924;DHT22;55961;52.156;20.942;2023-02-21T01:48:25;7.40;78.10
68924;DHT22;55961;52.156;20.942;2023-02-21T01:51:11;7.40;77.10
68924;DHT22;55961;52.156;20.942;2023-02-21T01:53:58;7.40;77.30
68924;DHT22;55961;52.156;20.942;2023-02-21T01:56:43;7.40;77.70
68924;DHT22;55961;52.156;20.942;2023-02-21T01:59:27;7.40;78.00
68924;DHT22;55961;52.156;20.942;2023-02-21T02:05:17;7.30;78.60
68924;DHT22;55961;52.156;20.942;2023-02-21T02:08:02;7.30;78.60
68924;DHT22;55961;52.156;20.942;2023-02-21T02:10:54;7.30;78.80
68924;DHT22;55961;52.156;20.942;2023-02-21T02:13:57;7.20;78.80
68924;DHT22;55961;52.156;20.942;2023-02-21T02:19:51;7.20;77.30
68924;DHT22;55961;52.156;20.942;2023-02-21T02:27:54;7.20;75.40
68924;DHT22;55961;52.156;20.942;2023-02-21T02:35:45;7.20;74.50
68924;DHT22;55961;52.156;20.942;2023-02-21T02:38:35;7.20;74.40
68924;DHT22;55961;52.156;20.942;2023-02-21T02:44:02;7.10;73.90
68924;DHT22;55961;52.156;20.942;2023-02-21T02:46:30;7.10;73.90
68924;DHT22;55961;52.156;20.942;2023-02-21T02:49:05;7.10;74.30
68924;DHT22;55961;52.156;20.942;2023-02-21T02:51:33;7.10;74.10
68924;DHT22;55961;52.156;20.942;2023-02-21T02:54:00;7.00;74.30
68924;DHT22;55961;52.156;20.942;2023-02-21T02:56:25;7.00;74.50
68924;DHT22;55961;52.156;20.942;2023-02-21T02:58:59;7.00;74.40
68924;DHT22;55961;52.156;20.942;2023-02-21T03:12:50;6.90;73.50
68924;DHT22;55961;52.156;20.942;2023-02-21T03:18:03;6.80;72.70
68924;DHT22;55961;52.156;20.942;2023-02-21T03:20:32;6.80;70.50
68924;DHT22;55961;52.156;20.942;2023-02-21T03:23:00;6.90;70.00
68924;DHT22;55961;52.156;20.942;2023-02-21T03:25:28;6.90;69.30
68924;DHT22;55961;52.156;20.942;2023-02-21T03:27:54;6.90;69.20
68924;DHT22;55961;52.156;20.942;2023-02-21T03:30:21;7.00;69.50
68924;DHT22;55961;52.156;20.942;2023-02-21T03:32:52;7.00;69.40
68924;DHT22;55961;52.156;20.942;2023-02-21T03:35:19;7.00;69.50
68924;DHT22;55961;52.156;20.942;2023-02-21T03:37:50;6.90;69.60
68924;DHT22;55961;52.156;20.942;2023-02-21T03:40:22;6.90;69.20
68924;DHT22;55961;52.156;20.942;2023-02-21T03:42:49;6.90;69.10
68924;DHT22;55961;52.156;20.942;2023-02-21T03:45:15;6.90;68.70
68924;DHT22;55961;52.156;20.942;2023-02-21T03:47:41;6.90;69.00
68924;DHT22;55961;52.156;20.942;2023-02-21T03:50:07;6.90;69.10
68924;DHT22;55961;52.156;20.942;2023-02-21T03:52:33;6.90;69.40
68924;DHT22;55961;52.156;20.942;2023-02-21T03:54:59;6.80;69.50
68924;DHT22;55961;52.156;20.942;2023-02-21T03:57:25;6.80;68.70
68924;DHT22;55961;52.156;20.942;2023-02-21T03:59:51;6.80;69.00
68924;DHT22;55961;52.156;20.942;2023-02-21T04:02:17;6.70;68.70
68924;DHT22;55961;52.156;20.942;2023-02-21T04:04:44;6.70;68.90
68924;DHT22;55961;52.156;20.942;2023-02-21T04:07:13;6.70;69.10
68924;DHT22;55961;52.156;20.942;2023-02-21T04:09:39;6.60;69.50
68924;DHT22;55961;52.156;20.942;2023-02-21T04:12:06;6.60;70.00
68924;DHT22;55961;52.156;20.942;2023-02-21T04:14:32;6.60;70.00
68924;DHT22;55961;52.156;20.942;2023-02-21T04:16:58;6.50;70.00
68924;DHT22;55961;52.156;20.942;2023-02-21T04:19:24;6.50;69.50
68924;DHT22;55961;52.156;20.942;2023-02-21T04:21:50;6.50;69.40
68924;DHT22;55961;52.156;20.942;2023-02-21T04:24:16;6.50;69.40
68924;DHT22;55961;52.156;20.942;2023-02-21T04:26:42;6.40;69.70
68924;DHT22;55961;52.156;20.942;2023-02-21T04:29:08;6.40;69.30
68924;DHT22;55961;52.156;20.942;2023-02-21T04:31:34;6.40;69.50
68924;DHT22;55961;52.156;20.942;2023-02-21T04:34:00;6.30;69.30
68924;DHT22;55961;52.156;20.942;2023-02-21T04:36:26;6.30;68.90
68924;DHT22;55961;52.156;20.942;2023-02-21T04:38:52;6.30;69.10
68924;DHT22;55961;52.156;20.942;2023-02-21T04:41:18;6.30;68.50
68924;DHT22;55961;52.156;20.942;2023-02-21T04:43:44;6.30;68.30
68924;DHT22;55961;52.156;20.942;2023-02-21T04:46:12;6.30;68.20
68924;DHT22;55961;52.156;20.942;2023-02-21T04:48:45;6.20;68.00
68924;DHT22;55961;52.156;20.942;2023-02-21T04:51:13;6.20;67.60
68924;DHT22;55961;52.156;20.942;2023-02-21T04:53:40;6.20;67.70
68924;DHT22;55961;52.156;20.942;2023-02-21T04:56:06;6.20;67.80
68924;DHT22;55961;52.156;20.942;2023-02-21T04:58:32;6.20;68.10
68924;DHT22;55961;52.156;20.942;2023-02-21T05:00:58;6.20;68.20
68924;DHT22;55961;52.156;20.942;2023-02-21T05:03:24;6.10;68.30
68924;DHT22;55961;52.156;20.942;2023-02-21T05:05:51;6.10;68.50
68924;DHT22;55961;52.156;20.942;2023-02-21T05:08:17;6.10;68.80
68924;DHT22;55961;52.156;20.942;2023-02-21T05:10:42;6.10;68.40
68924;DHT22;55961;52.156;20.942;2023-02-21T05:13:08;6.20;67.80
68924;DHT22;55961;52.156;20.942;2023-02-21T05:15:34;6.20;68.00
68924;DHT22;55961;52.156;20.942;2023-02-21T05:18:00;6.20;67.70
68924;DHT22;55961;52.156;20.942;2023-02-21T05:20:26;6.20;67.40
68924;DHT22;55961;52.156;20.942;2023-02-21T05:22:53;6.30;67.60
68924;DHT22;55961;52.156;20.942;2023-02-21T05:25:21;6.30;67.70
68924;DHT22;55961;52.156;20.942;2023-02-21T05:27:49;6.30;67.90
68924;DHT22;55961;52.156;20.942;2023-02-21T05:30:17;6.30;68.50
68924;DHT22;55961;52.156;20.942;2023-02-21T05:32:43;6.30;69.00
68924;DHT22;55961;52.156;20.942;2023-02-21T05:35:10;6.30;69.60
68924;DHT22;55961;52.156;20.942;2023-02-21T05:37:36;6.30;69.60
68924;DHT22;55961;52.156;20.942;2023-02-21T05:40:03;6.30;69.50
68924;DHT22;55961;52.156;20.942;2023-02-21T05:42:30;6.30;69.50
68924;DHT22;55961;52.156;20.942;2023-02-21T05:44:56;6.30;69.40
68924;DHT22;55961;52.156;20.942;2023-02-21T05:47:23;6.30;69.40
68924;DHT22;55961;52.156;20.942;2023-02-21T05:49:49;6.30;69.00
68924;DHT22;55961;52.156;20.942;2023-02-21T05:52:16;6.30;68.70
68924;DHT22;55961;52.156;20.942;2023-02-21T05:54:42;6.30;68.40
68924;DHT22;55961;52.156;20.942;2023-02-21T05:57:09;6.30;68.20
68924;DHT22;55961;52.156;20.942;2023-02-21T05:59:36;6.30;67.70
68924;DHT22;55961;52.156;20.942;2023-02-21T06:02:02;6.30;67.30
68924;DHT22;55961;52.156;20.942;2023-02-21T06:04:28;6.30;67.10
68924;DHT22;55961;52.156;20.942;2023-02-21T06:06:54;6.30;67.00
68924;DHT22;55961;52.156;20.942;2023-02-21T06:09:20;6.30;66.50
68924;DHT22;55961;52.156;20.942;2023-02-21T06:11:46;6.30;66.40
68924;DHT22;55961;52.156;20.942;2023-02-21T06:14:19;6.30;66.20
68924;DHT22;55961;52.156;20.942;2023-02-21T06:16:45;6.40;65.90
68924;DHT22;55961;52.156;20.942;2023-02-21T06:19:13;6.40;65.60
68924;DHT22;55961;52.156;20.942;2023-02-21T06:21:41;6.40;65.20
68924;DHT22;55961;52.156;20.942;2023-02-21T06:24:09;6.40;65.20
68924;DHT22;55961;52.156;20.942;2023-02-21T06:26:35;6.40;65.50
68924;DHT22;55961;52.156;20.942;2023-02-21T06:29:06;6.40;65.50
68924;DHT22;55961;52.156;20.942;2023-02-21T06:31:32;6.30;65.20
68924;DHT22;55961;52.156;20.942;2023-02-21T06:33:58;6.40;65.20
68924;DHT22;55961;52.156;20.942;2023-02-21T06:36:26;6.40;65.20
68924;DHT22;55961;52.156;20.942;2023-02-21T06:38:54;6.40;65.40
68924;DHT22;55961;52.156;20.942;2023-02-21T06:41:26;6.40;65.00
68924;DHT22;55961;52.156;20.942;2023-02-21T06:43:53;6.40;65.70
68924;DHT22;55961;52.156;20.942;2023-02-21T06:46:21;6.40;65.50
68924;DHT22;55961;52.156;20.942;2023-02-21T06:48:47;6.40;65.60
68924;DHT22;55961;52.156;20.942;2023-02-21T06:51:13;6.40;66.00
68924;DHT22;55961;52.156;20.942;2023-02-21T06:53:43;6.40;66.50
68924;DHT22;55961;52.156;20.942;2023-02-21T06:56:10;6.50;66.40
68924;DHT22;55961;52.156;20.942;2023-02-21T06:58:36;6.50;66.50
68924;DHT22;55961;52.156;20.942;2023-02-21T07:01:02;6.50;66.80
68924;DHT22;55961;52.156;20.942;2023-02-21T07:03:28;6.50;67.10
68924;DHT22;55961;52.156;20.942;2023-02-21T07:05:54;6.50;67.00
68924;DHT22;55961;52.156;20.942;2023-02-21T07:08:20;6.50;67.20
68924;DHT22;55961;52.156;20.942;2023-02-21T07:10:46;6.50;67.60
68924;DHT22;55961;52.156;20.942;2023-02-21T07:13:13;6.50;67.70
68924;DHT22;55961;52.156;20.942;2023-02-21T07:15:39;6.50;68.40
68924;DHT22;55961;52.156;20.942;2023-02-21T07:18:05;6.50;68.20
68924;DHT22;55961;52.156;20.942;2023-02-21T07:20:31;6.50;68.70
68924;DHT22;55961;52.156;20.942;2023-02-21T07:22:58;6.50;69.00
68924;DHT22;55961;52.156;20.942;2023-02-21T07:25:24;6.50;68.70
68924;DHT22;55961;52.156;20.942;2023-02-21T07:27:50;6.50;68.50
68924;DHT22;55961;52.156;20.942;2023-02-21T07:30:17;6.40;68.70
68924;DHT22;55961;52.156;20.942;2023-02-21T07:32:44;6.50;68.90
68924;DHT22;55961;52.156;20.942;2023-02-21T07:35:10;6.40;69.00
68924;DHT22;55961;52.156;20.942;2023-02-21T07:37:36;6.40;69.30
68924;DHT22;55961;52.156;20.942;2023-02-21T07:40:03;6.40;69.40
68924;DHT22;55961;52.156;20.942;2023-02-21T07:42:31;6.40;69.50
68924;DHT22;55961;52.156;20.942;2023-02-21T07:44:58;6.40;69.50
68924;DHT22;55961;52.156;20.942;2023-02-21T07:47:25;6.40;69.70
68924;DHT22;55961;52.156;20.942;2023-02-21T07:49:51;6.40;69.50
68924;DHT22;55961;52.156;20.942;2023-02-21T07:52:19;6.40;69.20
68924;DHT22;55961;52.156;20.942;2023-02-21T07:54:45;6.40;69.50
68924;DHT22;55961;52.156;20.942;2023-02-21T07:57:11;6.40;69.70
68924;DHT22;55961;52.156;20.942;2023-02-21T07:59:37;6.50;69.60
68924;DHT22;55961;52.156;20.942;2023-02-21T08:02:04;6.40;69.70
68924;DHT22;55961;52.156;20.942;2023-02-21T08:04:30;6.40;70.00
68924;DHT22;55961;52.156;20.942;2023-02-21T08:07:00;6.40;70.20
68924;DHT22;55961;52.156;20.942;2023-02-21T08:09:26;6.40;70.40
68924;DHT22;55961;52.156;20.942;2023-02-21T08:11:52;6.50;70.40
68924;DHT22;55961;52.156;20.942;2023-02-21T08:14:20;6.40;70.70
68924;DHT22;55961;52.156;20.942;2023-02-21T08:16:46;6.50;70.80
68924;DHT22;55961;52.156;20.942;2023-02-21T08:19:13;6.50;71.10
68924;DHT22;55961;52.156;20.942;2023-02-21T08:21:43;6.50;71.40
68924;DHT22;55961;52.156;20.942;2023-02-21T08:24:11;6.50;71.30
68924;DHT22;55961;52.156;20.942;2023-02-21T08:26:36;6.50;71.30
68924;DHT22;55961;52.156;20.942;2023-02-21T08:29:02;6.60;71.00
68924;DHT22;55961;52.156;20.942;2023-02-21T08:31:28;6.60;71.10
68924;DHT22;55961;52.156;20.942;2023-02-21T08:33:54;6.60;70.60
68924;DHT22;55961;52.156;20.942;2023-02-21T08:36:20;6.60;70.80
68924;DHT22;55961;52.156;20.942;2023-02-21T08:38:49;6.60;70.70
68924;DHT22;55961;52.156;20.942;2023-02-21T08:41:14;6.60;70.70
68924;DHT22;55961;52.156;20.942;2023-02-21T08:43:40;6.70;70.80
68924;DHT22;55961;52.156;20.942;2023-02-21T08:46:06;6.70;70.40
68924;DHT22;55961;52.156;20.942;2023-02-21T08:48:33;6.70;70.70
68924;DHT22;55961;52.156;20.942;2023-02-21T08:50:59;6.70;70.50
68924;DHT22;55961;52.156;20.942;2023-02-21T08:53:25;6.70;70.20
68924;DHT22;55961;52.156;20.942;2023-02-21T08:55:51;6.70;70.60
68924;DHT22;55961;52.156;20.942;2023-02-21T08:58:17;6.70;70.80
68924;DHT22;55961;52.156;20.942;2023-02-21T09:00:43;6.70;71.10
68924;DHT22;55961;52.156;20.942;2023-02-21T09:03:09;6.70;70.90
68924;DHT22;55961;52.156;20.942;2023-02-21T09:05:34;6.70;70.90
68924;DHT22;55961;52.156;20.942;2023-02-21T09:08:01;6.70;71.10
68924;DHT22;55961;52.156;20.942;2023-02-21T09:10:31;6.70;71.40
68924;DHT22;55961;52.156;20.942;2023-02-21T09:13:01;6.70;71.70
68924;DHT22;55961;52.156;20.942;2023-02-21T09:15:27;6.60;72.00
68924;DHT22;55961;52.156;20.942;2023-02-21T09:17:53;6.70;73.00
68924;DHT22;55961;52.156;20.942;2023-02-21T09:20:22;6.70;73.50
68924;DHT22;55961;52.156;20.942;2023-02-21T09:22:50;6.60;73.90
68924;DHT22;55961;52.156;20.942;2023-02-21T09:25:18;6.60;74.10
68924;DHT22;55961;52.156;20.942;2023-02-21T09:27:45;6.60;75.00
68924;DHT22;55961;52.156;20.942;2023-02-21T09:30:22;6.60;74.40
68924;DHT22;55961;52.156;20.942;2023-02-21T09:32:49;6.60;74.50
68924;DHT22;55961;52.156;20.942;2023-02-21T09:35:15;6.60;74.40
68924;DHT22;55961;52.156;20.942;2023-02-21T09:37:42;6.60;75.40
68924;DHT22;55961;52.156;20.942;2023-02-21T09:42:50;6.60;76.90
68924;DHT22;55961;52.156;20.942;2023-02-21T09:45:18;6.60;77.20
68924;DHT22;55961;52.156;20.942;2023-02-21T09:47:53;6.60;77.40
68924;DHT22;55961;52.156;20.942;2023-02-21T09:50:24;6.60;77.40
68924;DHT22;55961;52.156;20.942;2023-02-21T09:52:58;6.60;77.30
68924;DHT22;55961;52.156;20.942;2023-02-21T09:55:32;6.70;77.40
68924;DHT22;55961;52.156;20.942;2023-02-21T09:58:00;6.70;76.90
68924;DHT22;55961;52.156;20.942;2023-02-21T10:00:33;6.80;76.40
68924;DHT22;55961;52.156;20.942;2023-02-21T10:05:47;6.90;77.30
68924;DHT22;55961;52.156;20.942;2023-02-21T10:12:07;7.10;76.00
68924;DHT22;55961;52.156;20.942;2023-02-21T10:17:05;7.20;75.60
68924;DHT22;55961;52.156;20.942;2023-02-21T10:19:43;7.30;75.40
68924;DHT22;55961;52.156;20.942;2023-02-21T10:22:34;7.40;74.60
68924;DHT22;55961;52.156;20.942;2023-02-21T10:25:24;7.40;74.30
68924;DHT22;55961;52.156;20.942;2023-02-21T10:27:53;7.40;73.50
68924;DHT22;55961;52.156;20.942;2023-02-21T10:30:46;7.40;73.40
68924;DHT22;55961;52.156;20.942;2023-02-21T10:33:13;7.50;72.70
68924;DHT22;55961;52.156;20.942;2023-02-21T10:35:39;7.60;73.20
68924;DHT22;55961;52.156;20.942;2023-02-21T10:38:11;7.60;73.20
68924;DHT22;55961;52.156;20.942;2023-02-21T10:40:38;7.60;73.10
68924;DHT22;55961;52.156;20.942;2023-02-21T10:43:38;7.70;71.40
68924;DHT22;55961;52.156;20.942;2023-02-21T10:48:43;7.70;71.30
68924;DHT22;55961;52.156;20.942;2023-02-21T10:51:14;7.70;72.00
68924;DHT22;55961;52.156;20.942;2023-02-21T10:53:44;7.80;71.50
68924;DHT22;55961;52.156;20.942;2023-02-21T10:59:00;7.90;70.30
68924;DHT22;55961;52.156;20.942;2023-02-21T11:01:46;7.90;69.30
68924;DHT22;55961;52.156;20.942;2023-02-21T11:06:57;8.00;69.60
68924;DHT22;55961;52.156;20.942;2023-02-21T11:12:01;8.20;69.00
68924;DHT22;55961;52.156;20.942;2023-02-21T11:14:28;8.30;68.10
68924;DHT22;55961;52.156;20.942;2023-02-21T11:22:11;8.60;67.20
68924;DHT22;55961;52.156;20.942;2023-02-21T11:28:04;8.70;65.30
68924;DHT22;55961;52.156;20.942;2023-02-21T11:30:36;8.70;65.40
68924;DHT22;55961;52.156;20.942;2023-02-21T11:33:04;8.70;65.50
68924;DHT22;55961;52.156;20.942;2023-02-21T11:35:32;8.70;65.90
68924;DHT22;55961;52.156;20.942;2023-02-21T11:38:07;8.70;65.80
68924;DHT22;55961;52.156;20.942;2023-02-21T11:40:46;8.60;66.20
68924;DHT22;55961;52.156;20.942;2023-02-21T11:43:27;8.60;65.90
68924;DHT22;55961;52.156;20.942;2023-02-21T11:48:48;8.50;66.10
68924;DHT22;55961;52.156;20.942;2023-02-21T11:51:29;8.50;66.90
68924;DHT22;55961;52.156;20.942;2023-02-21T11:53:56;8.50;66.60
68924;DHT22;55961;52.156;20.942;2023-02-21T11:56:33;8.60;65.40
68924;DHT22;55961;52.156;20.942;2023-02-21T12:10:56;8.60;65.80
68924;DHT22;55961;52.156;20.942;2023-02-21T12:17:00;8.70;65.80
68924;DHT22;55961;52.156;20.942;2023-02-21T12:21:59;8.80;64.70
68924;DHT22;55961;52.156;20.942;2023-02-21T12:41:00;9.20;62.80
68924;DHT22;55961;52.156;20.942;2023-02-21T12:44:03;9.20;62.60
68924;DHT22;55961;52.156;20.942;2023-02-21T12:46:56;9.00;61.90
68924;DHT22;55961;52.156;20.942;2023-02-21T13:02:57;8.50;65.80
68924;DHT22;55961;52.156;20.942;2023-02-21T13:05:45;8.40;66.10
68924;DHT22;55961;52.156;20.942;2023-02-21T13:08:28;8.30;66.60
68924;DHT22;55961;52.156;20.942;2023-02-21T13:13:32;8.20;66.50
68924;DHT22;55961;52.156;20.942;2023-02-21T13:16:04;8.20;67.40
68924;DHT22;55961;52.156;20.942;2023-02-21T13:24:12;8.10;68.80
68924;DHT22;55961;52.156;20.942;2023-02-21T13:29:35;8.00;71.80
68924;DHT22;55961;52.156;20.942;2023-02-21T13:32:05;8.00;73.10
68924;DHT22;55961;52.156;20.942;2023-02-21T13:34:45;7.90;73.00
68924;DHT22;55961;52.156;20.942;2023-02-21T13:37:23;7.80;75.20
68924;DHT22;55961;52.156;20.942;2023-02-21T13:39:52;7.80;74.90
68924;DHT22;55961;52.156;20.942;2023-02-21T13:42:23;7.70;74.80
68924;DHT22;55961;52.156;20.942;2023-02-21T13:44:54;7.70;75.30
68924;DHT22;55961;52.156;20.942;2023-02-21T13:55:38;7.60;75.10
68924;DHT22;55961;52.156;20.942;2023-02-21T14:13:44;7.60;71.90
68924;DHT22;55961;52.156;20.942;2023-02-21T14:16:16;7.60;71.20
68924;DHT22;55961;52.156;20.942;2023-02-21T14:18:48;7.60;71.20
68924;DHT22;55961;52.156;20.942;2023-02-21T14:26:53;7.60;70.20
68924;DHT22;55961;52.156;20.942;2023-02-21T14:29:45;7.50;70.50
68924;DHT22;55961;52.156;20.942;2023-02-21T14:32:36;7.50;70.50
68924;DHT22;55961;52.156;20.942;2023-02-21T14:37:52;7.40;71.30
68924;DHT22;55961;52.156;20.942;2023-02-21T14:46:06;7.30;72.20
68924;DHT22;55961;52.156;20.942;2023-02-21T14:54:57;7.40;71.80
68924;DHT22;55961;52.156;20.942;2023-02-21T14:57:35;7.30;71.80
68924;DHT22;55961;52.156;20.942;2023-02-21T15:03:11;7.30;72.20
68924;DHT22;55961;52.156;20.942;2023-02-21T15:05:49;7.30;72.10
68924;DHT22;55961;52.156;20.942;2023-02-21T15:08:20;7.30;72.10
68924;DHT22;55961;52.156;20.942;2023-02-21T15:10:49;7.30;72.10
68924;DHT22;55961;52.156;20.942;2023-02-21T15:16:00;7.30;71.30
68924;DHT22;55961;52.156;20.942;2023-02-21T15:18:30;7.30;70.70
68924;DHT22;55961;52.156;20.942;2023-02-21T15:23:43;7.30;70.70
68924;DHT22;55961;52.156;20.942;2023-02-21T15:26:22;7.30;70.10
68924;DHT22;55961;52.156;20.942;2023-02-21T15:29:14;7.30;70.30
68924;DHT22;55961;52.156;20.942;2023-02-21T15:31:48;7.30;70.60
68924;DHT22;55961;52.156;20.942;2023-02-21T15:34:24;7.30;70.50
68924;DHT22;55961;52.156;20.942;2023-02-21T15:39:32;7.20;70.40
68924;DHT22;55961;52.156;20.942;2023-02-21T15:41:58;7.20;70.10
68924;DHT22;55961;52.156;20.942;2023-02-21T15:49:28;7.20;70.30
68924;DHT22;55961;52.156;20.942;2023-02-21T15:51:56;7.20;70.60
68924;DHT22;55961;52.156;20.942;2023-02-21T15:54:29;7.20;70.80
68924;DHT22;55961;52.156;20.942;2023-02-21T15:59:36;7.10;71.20
68924;DHT22;55961;52.156;20.942;2023-02-21T16:04:36;7.10;71.70
68924;DHT22;55961;52.156;20.942;2023-02-21T16:07:05;7.10;71.60
68924;DHT22;55961;52.156;20.942;2023-02-21T16:09:33;7.10;71.90
68924;DHT22;55961;52.156;20.942;2023-02-21T16:14:43;7.00;72.10
68924;DHT22;55961;52.156;20.942;2023-02-21T16:17:29;7.00;72.20
68924;DHT22;55961;52.156;20.942;2023-02-21T16:27:35;7.00;72.20
68924;DHT22;55961;52.156;20.942;2023-02-21T16:30:02;7.00;72.20
68924;DHT22;55961;52.156;20.942;2023-02-21T16:32:30;7.00;72.10
68924;DHT22;55961;52.156;20.942;2023-02-21T16:34:56;7.00;72.00
68924;DHT22;55961;52.156;20.942;2023-02-21T16:37:23;7.00;72.20
68924;DHT22;55961;52.156;20.942;2023-02-21T16:39:49;7.00;72.30
68924;DHT22;55961;52.156;20.942;2023-02-21T16:42:15;6.90;72.30
68924;DHT22;55961;52.156;20.942;2023-02-21T16:44:42;6.90;72.40
68924;DHT22;55961;52.156;20.942;2023-02-21T16:47:12;7.00;72.40
68924;DHT22;55961;52.156;20.942;2023-02-21T16:49:39;7.00;72.60
68924;DHT22;55961;52.156;20.942;2023-02-21T16:52:04;6.90;72.50
68924;DHT22;55961;52.156;20.942;2023-02-21T16:54:30;7.00;72.60
68924;DHT22;55961;52.156;20.942;2023-02-21T16:56:56;6.90;72.80
68924;DHT22;55961;52.156;20.942;2023-02-21T16:59:24;6.90;73.40
68924;DHT22;55961;52.156;20.942;2023-02-21T17:01:50;6.90;73.50
68924;DHT22;55961;52.156;20.942;2023-02-21T17:04:18;6.90;73.20
68924;DHT22;55961;52.156;20.942;2023-02-21T17:06:46;6.90;73.20
68924;DHT22;55961;52.156;20.942;2023-02-21T17:09:19;6.90;73.30
68924;DHT22;55961;52.156;20.942;2023-02-21T17:11:45;6.80;73.40
68924;DHT22;55961;52.156;20.942;2023-02-21T17:14:11;6.80;73.50
68924;DHT22;55961;52.156;20.942;2023-02-21T17:16:37;6.80;73.20
68924;DHT22;55961;52.156;20.942;2023-02-21T17:19:04;6.80;73.30
68924;DHT22;55961;52.156;20.942;2023-02-21T17:21:31;6.80;73.20
68924;DHT22;55961;52.156;20.942;2023-02-21T17:23:57;6.80;73.20
68924;DHT22;55961;52.156;20.942;2023-02-21T17:26:24;6.80;73.20
68924;DHT22;55961;52.156;20.942;2023-02-21T17:28:50;6.80;73.20
68924;DHT22;55961;52.156;20.942;2023-02-21T17:31:16;6.80;73.20
68924;DHT22;55961;52.156;20.942;2023-02-21T17:33:43;6.80;73.20
68924;DHT22;55961;52.156;20.942;2023-02-21T17:36:21;6.70;73.20
68924;DHT22;55961;52.156;20.942;2023-02-21T17:38:47;6.80;73.40
68924;DHT22;55961;52.156;20.942;2023-02-21T17:41:13;6.70;73.40
68924;DHT22;55961;52.156;20.942;2023-02-21T17:43:40;6.70;73.40
68924;DHT22;55961;52.156;20.942;2023-02-21T17:46:14;6.70;73.40
68924;DHT22;55961;52.156;20.942;2023-02-21T17:48:40;6.70;73.20
68924;DHT22;55961;52.156;20.942;2023-02-21T17:51:07;6.70;73.20
68924;DHT22;55961;52.156;20.942;2023-02-21T17:53:33;6.70;73.20
68924;DHT22;55961;52.156;20.942;2023-02-21T17:56:00;6.70;73.30
68924;DHT22;55961;52.156;20.942;2023-02-21T17:58:26;6.70;73.40
68924;DHT22;55961;52.156;20.942;2023-02-21T18:00:52;6.70;73.40
68924;DHT22;55961;52.156;20.942;2023-02-21T18:03:21;6.70;73.40
68924;DHT22;55961;52.156;20.942;2023-02-21T18:05:47;6.70;73.40
68924;DHT22;55961;52.156;20.942;2023-02-21T18:08:15;6.70;73.40
68924;DHT22;55961;52.156;20.942;2023-02-21T18:10:41;6.70;73.60
68924;DHT22;55961;52.156;20.942;2023-02-21T18:13:19;6.70;73.80
68924;DHT22;55961;52.156;20.942;2023-02-21T18:15:46;6.60;73.80
68924;DHT22;55961;52.156;20.942;2023-02-21T18:18:12;6.60;73.80
68924;DHT22;55961;52.156;20.942;2023-02-21T18:20:39;6.60;73.70
68924;DHT22;55961;52.156;20.942;2023-02-21T18:23:05;6.60;73.80
68924;DHT22;55961;52.156;20.942;2023-02-21T18:25:33;6.60;73.90
68924;DHT22;55961;52.156;20.942;2023-02-21T18:27:59;6.60;73.90
68924;DHT22;55961;52.156;20.942;2023-02-21T18:30:25;6.60;74.00
68924;DHT22;55961;52.156;20.942;2023-02-21T18:32:52;6.60;74.00
68924;DHT22;55961;52.156;20.942;2023-02-21T18:35:18;6.60;74.20
68924;DHT22;55961;52.156;20.942;2023-02-21T18:37:45;6.50;74.10
68924;DHT22;55961;52.156;20.942;2023-02-21T18:40:16;6.50;74.10
68924;DHT22;55961;52.156;20.942;2023-02-21T18:42:43;6.50;74.20
68924;DHT22;55961;52.156;20.942;2023-02-21T18:45:10;6.50;74.40
68924;DHT22;55961;52.156;20.942;2023-02-21T18:47:37;6.40;74.50
68924;DHT22;55961;52.156;20.942;2023-02-21T18:50:04;6.40;74.60
68924;DHT22;55961;52.156;20.942;2023-02-21T18:52:30;6.40;74.70
68924;DHT22;55961;52.156;20.942;2023-02-21T18:54:56;6.40;74.70
68924;DHT22;55961;52.156;20.942;2023-02-21T18:57:29;6.30;74.80
68924;DHT22;55961;52.156;20.942;2023-02-21T18:59:56;6.30;74.80
68924;DHT22;55961;52.156;20.942;2023-02-21T19:02:23;6.30;74.80
68924;DHT22;55961;52.156;20.942;2023-02-21T19:04:48;6.20;75.00
68924;DHT22;55961;52.156;20.942;2023-02-21T19:07:15;6.20;75.10
68924;DHT22;55961;52.156;20.942;2023-02-21T19:09:44;6.20;75.10
68924;DHT22;55961;52.156;20.942;2023-02-21T19:12:10;6.10;75.30
68924;DHT22;55961;52.156;20.942;2023-02-21T19:14:36;6.10;75.40
68924;DHT22;55961;52.156;20.942;2023-02-21T19:17:03;6.10;75.60